Terminal Aerodrome Forecast
Issued by NWS

Home | Current Version | Previous Version | Text Only | Print | Product List | Glossary On
Versions: 1 2 3 4 5 6 7 8 9 10 11 12 13 14 15 16 17 18 19 20 21 22 23 24 25 26 27 28
000
FTUS41 KBTV 290537
TAFPBG
TAF
KPBG 290537Z 2906/3006 16008KT P6SM BKN120
     FM291300 16012G19KT P6SM VCSH BKN080
     FM291500 17013G21KT P6SM -SHRA OVC060
     FM291600 16013G19KT 5SM -SHRA BR OVC035
     FM292200 16012G20KT P6SM VCSH BKN035
     FM300000 17011KT P6SM BKN035
     FM300100 17011KT P6SM SCT035=

USA.gov is the U.S. government's official web portal to all federal, state and local government web resources and services.